sensor_id;sensor_type;location;lat;lon;timestamp;pressure;altitude;pressure_sealevel;temperature;humidity
41947;BME280;27638;42.184;24.848;2023-11-21T00:01:40;99690.63;;;10.67;65.37
41947;BME280;27638;42.184;24.848;2023-11-21T00:04:05;99696.25;;;10.64;65.50
41947;BME280;27638;42.184;24.848;2023-11-21T00:06:32;99696.06;;;10.15;64.98
41947;BME280;27638;42.184;24.848;2023-11-21T00:08:58;99701.91;;;9.85;66.14
41947;BME280;27638;42.184;24.848;2023-11-21T00:11:23;99702.56;;;9.87;66.90
41947;BME280;27638;42.184;24.848;2023-11-21T00:13:50;99697.63;;;9.92;66.83
41947;BME280;27638;42.184;24.848;2023-11-21T00:16:16;99694.88;;;10.02;66.70
41947;BME280;27638;42.184;24.848;2023-11-21T00:18:41;99698.06;;;10.13;66.51
41947;BME280;27638;42.184;24.848;2023-11-21T00:21:08;99703.84;;;10.17;64.83
41947;BME280;27638;42.184;24.848;2023-11-21T00:23:34;99701.03;;;10.18;65.77
41947;BME280;27638;42.184;24.848;2023-11-21T00:26:00;99695.41;;;10.13;65.83
41947;BME280;27638;42.184;24.848;2023-11-21T00:28:26;99684.09;;;9.95;65.74
41947;BME280;27638;42.184;24.848;2023-11-21T00:30:51;99692.28;;;9.76;66.84
41947;BME280;27638;42.184;24.848;2023-11-21T00:33:17;99694.06;;;9.67;68.61
41947;BME280;27638;42.184;24.848;2023-11-21T00:35:42;99692.94;;;9.78;68.96
41947;BME280;27638;42.184;24.848;2023-11-21T00:38:08;99690.66;;;9.49;67.23
41947;BME280;27638;42.184;24.848;2023-11-21T00:40:34;99684.09;;;9.35;67.30
41947;BME280;27638;42.184;24.848;2023-11-21T00:42:59;99689.66;;;9.06;68.55
41947;BME280;27638;42.184;24.848;2023-11-21T00:45:24;99690.28;;;9.00;69.81
41947;BME280;27638;42.184;24.848;2023-11-21T00:47:50;99693.66;;;9.10;69.69
41947;BME280;27638;42.184;24.848;2023-11-21T00:50:16;99688.03;;;9.31;68.58
41947;BME280;27638;42.184;24.848;2023-11-21T00:52:41;99685.84;;;9.26;69.30
41947;BME280;27638;42.184;24.848;2023-11-21T00:55:07;99690.63;;;9.23;70.03
41947;BME280;27638;42.184;24.848;2023-11-21T00:57:34;99684.47;;;9.40;69.26
41947;BME280;27638;42.184;24.848;2023-11-21T00:59:59;99694.66;;;9.35;68.58
41947;BME280;27638;42.184;24.848;2023-11-21T01:02:25;99696.41;;;9.26;68.92
41947;BME280;27638;42.184;24.848;2023-11-21T01:04:51;99699.69;;;9.20;69.69
41947;BME280;27638;42.184;24.848;2023-11-21T01:07:16;99697.88;;;9.21;69.42
41947;BME280;27638;42.184;24.848;2023-11-21T01:09:42;99698.53;;;9.23;69.29
41947;BME280;27638;42.184;24.848;2023-11-21T01:12:09;99687.78;;;8.99;69.26
41947;BME280;27638;42.184;24.848;2023-11-21T01:14:34;99692.03;;;8.91;69.19
41947;BME280;27638;42.184;24.848;2023-11-21T01:17:02;99700.69;;;9.02;68.80
41947;BME280;27638;42.184;24.848;2023-11-21T01:19:29;99704.56;;;8.72;68.81
41947;BME280;27638;42.184;24.848;2023-11-21T01:21:54;99705.28;;;8.19;70.75
41947;BME280;27638;42.184;24.848;2023-11-21T01:24:20;99705.44;;;7.90;72.28
41947;BME280;27638;42.184;24.848;2023-11-21T01:26:45;99690.59;;;7.52;74.65
41947;BME280;27638;42.184;24.848;2023-11-21T01:29:12;99692.22;;;7.62;73.17
41947;BME280;27638;42.184;24.848;2023-11-21T01:31:37;99679.38;;;7.87;72.46
41947;BME280;27638;42.184;24.848;2023-11-21T01:34:02;99687.38;;;7.95;72.91
41947;BME280;27638;42.184;24.848;2023-11-21T01:36:31;99675.69;;;7.97;72.37
41947;BME280;27638;42.184;24.848;2023-11-21T01:38:57;99690.25;;;7.74;72.69
41947;BME280;27638;42.184;24.848;2023-11-21T01:41:25;99686.41;;;7.96;73.00
41947;BME280;27638;42.184;24.848;2023-11-21T01:43:52;99692.19;;;7.99;72.60
41947;BME280;27638;42.184;24.848;2023-11-21T01:46:19;99690.78;;;8.05;72.29
41947;BME280;27638;42.184;24.848;2023-11-21T01:48:45;99686.59;;;8.12;71.75
41947;BME280;27638;42.184;24.848;2023-11-21T01:51:11;99680.19;;;8.15;71.56
41947;BME280;27638;42.184;24.848;2023-11-21T01:53:36;99679.06;;;7.90;71.86
41947;BME280;27638;42.184;24.848;2023-11-21T01:56:02;99674.63;;;7.90;71.78
41947;BME280;27638;42.184;24.848;2023-11-21T01:58:30;99680.44;;;7.94;72.15
41947;BME280;27638;42.184;24.848;2023-11-21T02:00:57;99682.47;;;7.73;72.30
41947;BME280;27638;42.184;24.848;2023-11-21T02:03:23;99677.22;;;7.73;71.86
41947;BME280;27638;42.184;24.848;2023-11-21T02:05:48;99675.13;;;7.76;71.60
41947;BME280;27638;42.184;24.848;2023-11-21T02:08:14;99671.34;;;7.79;71.56
41947;BME280;27638;42.184;24.848;2023-11-21T02:10:39;99677.75;;;7.39;72.97
41947;BME280;27638;42.184;24.848;2023-11-21T02:13:06;99681.25;;;7.30;73.03
41947;BME280;27638;42.184;24.848;2023-11-21T02:15:31;99668.06;;;7.20;73.36
41947;BME280;27638;42.184;24.848;2023-11-21T02:17:57;99670.00;;;7.18;73.39
41947;BME280;27638;42.184;24.848;2023-11-21T02:20:23;99666.69;;;7.16;74.54
41947;BME280;27638;42.184;24.848;2023-11-21T02:22:50;99668.31;;;7.27;74.39
41947;BME280;27638;42.184;24.848;2023-11-21T02:25:21;99666.22;;;7.50;72.70
41947;BME280;27638;42.184;24.848;2023-11-21T02:27:46;99675.31;;;7.65;72.62
41947;BME280;27638;42.184;24.848;2023-11-21T02:30:14;99686.47;;;7.77;72.56
41947;BME280;27638;42.184;24.848;2023-11-21T02:32:39;99683.59;;;7.70;72.57
41947;BME280;27638;42.184;24.848;2023-11-21T02:35:08;99675.34;;;7.83;72.00
41947;BME280;27638;42.184;24.848;2023-11-21T02:37:33;99678.25;;;7.89;71.25
41947;BME280;27638;42.184;24.848;2023-11-21T02:40:00;99676.28;;;7.91;71.73
41947;BME280;27638;42.184;24.848;2023-11-21T02:42:29;99680.59;;;7.92;71.35
41947;BME280;27638;42.184;24.848;2023-11-21T02:44:54;99682.72;;;8.07;70.27
41947;BME280;27638;42.184;24.848;2023-11-21T02:47:20;99682.66;;;8.16;70.12
41947;BME280;27638;42.184;24.848;2023-11-21T02:49:45;99677.84;;;8.12;69.66
41947;BME280;27638;42.184;24.848;2023-11-21T02:52:10;99684.09;;;8.11;69.63
41947;BME280;27638;42.184;24.848;2023-11-21T02:54:36;99680.88;;;8.17;69.97
41947;BME280;27638;42.184;24.848;2023-11-21T02:57:02;99683.34;;;8.18;68.80
41947;BME280;27638;42.184;24.848;2023-11-21T02:59:27;99688.19;;;8.23;69.65
41947;BME280;27638;42.184;24.848;2023-11-21T03:01:53;99684.72;;;8.22;69.64
41947;BME280;27638;42.184;24.848;2023-11-21T03:04:18;99677.63;;;8.23;69.40
41947;BME280;27638;42.184;24.848;2023-11-21T03:06:44;99677.34;;;8.26;69.04
41947;BME280;27638;42.184;24.848;2023-11-21T03:09:10;99679.53;;;8.30;69.54
41947;BME280;27638;42.184;24.848;2023-11-21T03:11:39;99675.53;;;8.36;69.04
41947;BME280;27638;42.184;24.848;2023-11-21T03:14:04;99677.56;;;8.42;69.06
41947;BME280;27638;42.184;24.848;2023-11-21T03:16:31;99681.56;;;8.46;68.25
41947;BME280;27638;42.184;24.848;2023-11-21T03:18:56;99688.34;;;8.49;68.62
41947;BME280;27638;42.184;24.848;2023-11-21T03:21:22;99693.25;;;8.44;68.47
41947;BME280;27638;42.184;24.848;2023-11-21T03:23:47;99688.16;;;8.32;68.36
41947;BME280;27638;42.184;24.848;2023-11-21T03:26:13;99700.53;;;8.22;68.73
41947;BME280;27638;42.184;24.848;2023-11-21T03:28:39;99691.06;;;8.02;69.56
41947;BME280;27638;42.184;24.848;2023-11-21T03:31:05;99685.22;;;8.08;68.96
41947;BME280;27638;42.184;24.848;2023-11-21T03:33:32;99661.09;;;8.03;69.36
41947;BME280;27638;42.184;24.848;2023-11-21T03:35:57;99672.53;;;7.94;69.23
41947;BME280;27638;42.184;24.848;2023-11-21T03:38:23;99677.13;;;7.92;69.98
41947;BME280;27638;42.184;24.848;2023-11-21T03:40:48;99677.34;;;7.98;70.28
41947;BME280;27638;42.184;24.848;2023-11-21T03:43:15;99683.78;;;8.14;69.93
41947;BME280;27638;42.184;24.848;2023-11-21T03:45:41;99676.41;;;8.17;68.75
41947;BME280;27638;42.184;24.848;2023-11-21T03:48:07;99686.91;;;8.27;68.84
41947;BME280;27638;42.184;24.848;2023-11-21T03:50:32;99681.78;;;8.35;68.51
41947;BME280;27638;42.184;24.848;2023-11-21T03:52:58;99687.44;;;8.40;68.58
41947;BME280;27638;42.184;24.848;2023-11-21T03:55:23;99693.69;;;8.39;68.11
41947;BME280;27638;42.184;24.848;2023-11-21T03:57:50;99690.47;;;8.45;68.09
41947;BME280;27638;42.184;24.848;2023-11-21T04:00:17;99686.84;;;8.46;67.85
41947;BME280;27638;42.184;24.848;2023-11-21T04:02:43;99686.00;;;8.46;66.78
41947;BME280;27638;42.184;24.848;2023-11-21T04:05:08;99697.06;;;8.22;68.15
41947;BME280;27638;42.184;24.848;2023-11-21T04:07:35;99705.97;;;8.21;68.26
41947;BME280;27638;42.184;24.848;2023-11-21T04:10:00;99721.69;;;8.13;68.19
41947;BME280;27638;42.184;24.848;2023-11-21T04:12:25;99713.06;;;8.20;68.53
41947;BME280;27638;42.184;24.848;2023-11-21T04:14:51;99708.31;;;8.24;68.31
41947;BME280;27638;42.184;24.848;2023-11-21T04:17:19;99691.81;;;8.22;68.57
41947;BME280;27638;42.184;24.848;2023-11-21T04:19:45;99705.53;;;8.25;67.75
41947;BME280;27638;42.184;24.848;2023-11-21T04:22:11;99709.72;;;8.18;67.87
41947;BME280;27638;42.184;24.848;2023-11-21T04:24:36;99698.53;;;8.07;67.19
41947;BME280;27638;42.184;24.848;2023-11-21T04:27:02;99710.75;;;7.80;67.56
41947;BME280;27638;42.184;24.848;2023-11-21T04:29:28;99707.28;;;7.80;66.96
41947;BME280;27638;42.184;24.848;2023-11-21T04:31:54;99710.31;;;7.85;66.18
41947;BME280;27638;42.184;24.848;2023-11-21T04:34:19;99707.13;;;7.44;69.09
41947;BME280;27638;42.184;24.848;2023-11-21T04:36:45;99713.25;;;7.35;71.34
41947;BME280;27638;42.184;24.848;2023-11-21T04:39:10;99702.41;;;7.48;71.53
41947;BME280;27638;42.184;24.848;2023-11-21T04:41:36;99715.31;;;7.22;72.09
41947;BME280;27638;42.184;24.848;2023-11-21T04:44:05;99720.03;;;7.28;72.57
41947;BME280;27638;42.184;24.848;2023-11-21T04:46:30;99718.38;;;7.36;72.57
41947;BME280;27638;42.184;24.848;2023-11-21T04:48:57;99706.59;;;7.31;72.38
41947;BME280;27638;42.184;24.848;2023-11-21T04:51:22;99708.84;;;6.97;74.73
41947;BME280;27638;42.184;24.848;2023-11-21T04:53:47;99711.19;;;7.00;75.04
41947;BME280;27638;42.184;24.848;2023-11-21T04:56:13;99706.91;;;6.89;75.92
41947;BME280;27638;42.184;24.848;2023-11-21T04:58:38;99707.75;;;6.80;76.98
41947;BME280;27638;42.184;24.848;2023-11-21T05:01:05;99716.06;;;6.95;77.19
41947;BME280;27638;42.184;24.848;2023-11-21T05:03:32;99716.19;;;6.93;77.41
41947;BME280;27638;42.184;24.848;2023-11-21T05:05:57;99727.13;;;7.18;76.64
41947;BME280;27638;42.184;24.848;2023-11-21T05:08:23;99721.28;;;7.43;74.78
41947;BME280;27638;42.184;24.848;2023-11-21T05:10:48;99715.41;;;7.59;73.96
41947;BME280;27638;42.184;24.848;2023-11-21T05:13:17;99715.25;;;7.60;73.67
41947;BME280;27638;42.184;24.848;2023-11-21T05:15:43;99716.19;;;7.69;73.93
41947;BME280;27638;42.184;24.848;2023-11-21T05:18:09;99724.41;;;7.66;73.54
41947;BME280;27638;42.184;24.848;2023-11-21T05:20:35;99715.38;;;7.68;72.79
41947;BME280;27638;42.184;24.848;2023-11-21T05:23:01;99724.06;;;7.79;72.45
41947;BME280;27638;42.184;24.848;2023-11-21T05:25:26;99730.56;;;7.84;71.29
41947;BME280;27638;42.184;24.848;2023-11-21T05:27:52;99725.78;;;7.70;71.54
41947;BME280;27638;42.184;24.848;2023-11-21T05:30:18;99724.53;;;7.64;71.75
41947;BME280;27638;42.184;24.848;2023-11-21T05:32:44;99716.75;;;7.73;71.90
41947;BME280;27638;42.184;24.848;2023-11-21T05:35:10;99713.38;;;7.80;71.15
41947;BME280;27638;42.184;24.848;2023-11-21T05:37:40;99719.75;;;7.87;71.33
41947;BME280;27638;42.184;24.848;2023-11-21T05:40:06;99726.91;;;7.95;70.95
41947;BME280;27638;42.184;24.848;2023-11-21T05:42:33;99729.88;;;7.82;70.68
41947;BME280;27638;42.184;24.848;2023-11-21T05:44:58;99730.19;;;7.79;69.15
41947;BME280;27638;42.184;24.848;2023-11-21T05:47:46;99724.06;;;7.79;69.50
41947;BME280;27638;42.184;24.848;2023-11-21T05:50:13;99730.06;;;7.71;69.51
41947;BME280;27638;42.184;24.848;2023-11-21T05:52:46;99725.91;;;7.68;69.21
41947;BME280;27638;42.184;24.848;2023-11-21T05:55:12;99729.53;;;7.67;70.05
41947;BME280;27638;42.184;24.848;2023-11-21T05:57:39;99724.13;;;7.59;70.35
41947;BME280;27638;42.184;24.848;2023-11-21T06:00:06;99734.50;;;7.71;70.47
41947;BME280;27638;42.184;24.848;2023-11-21T06:02:41;99728.50;;;7.78;69.89
41947;BME280;27638;42.184;24.848;2023-11-21T06:05:07;99730.66;;;7.65;71.23
41947;BME280;27638;42.184;24.848;2023-11-21T06:07:33;99727.88;;;7.66;71.95
41947;BME280;27638;42.184;24.848;2023-11-21T06:09:59;99736.00;;;7.83;71.71
41947;BME280;27638;42.184;24.848;2023-11-21T06:12:25;99737.56;;;8.03;71.81
41947;BME280;27638;42.184;24.848;2023-11-21T06:14:50;99740.53;;;8.18;71.92
41947;BME280;27638;42.184;24.848;2023-11-21T06:17:16;99739.00;;;8.35;71.46
41947;BME280;27638;42.184;24.848;2023-11-21T06:19:43;99733.81;;;8.43;71.15
41947;BME280;27638;42.184;24.848;2023-11-21T06:22:11;99733.66;;;8.44;71.80
41947;BME280;27638;42.184;24.848;2023-11-21T06:24:36;99745.66;;;8.56;71.54
41947;BME280;27638;42.184;24.848;2023-11-21T06:27:03;99739.47;;;8.66;71.57
41947;BME280;27638;42.184;24.848;2023-11-21T06:29:30;99754.13;;;8.78;71.63
41947;BME280;27638;42.184;24.848;2023-11-21T06:31:55;99748.69;;;8.79;70.61
41947;BME280;27638;42.184;24.848;2023-11-21T06:34:21;99744.63;;;8.67;71.41
41947;BME280;27638;42.184;24.848;2023-11-21T06:36:47;99740.47;;;8.64;72.12
41947;BME280;27638;42.184;24.848;2023-11-21T06:39:12;99742.59;;;8.79;71.83
41947;BME280;27638;42.184;24.848;2023-11-21T06:41:40;99736.53;;;8.86;71.38
41947;BME280;27638;42.184;24.848;2023-11-21T06:44:05;99731.50;;;8.93;71.60
41947;BME280;27638;42.184;24.848;2023-11-21T06:46:31;99748.31;;;9.10;70.69
41947;BME280;27638;42.184;24.848;2023-11-21T06:48:56;99743.91;;;9.18;70.81
41947;BME280;27638;42.184;24.848;2023-11-21T06:51:22;99745.56;;;9.37;70.29
41947;BME280;27638;42.184;24.848;2023-11-21T06:53:47;99745.00;;;9.51;70.31
41947;BME280;27638;42.184;24.848;2023-11-21T06:56:16;99744.13;;;9.69;70.12
41947;BME280;27638;42.184;24.848;2023-11-21T06:58:45;99741.53;;;9.77;69.75
41947;BME280;27638;42.184;24.848;2023-11-21T07:01:11;99743.19;;;9.78;70.70
41947;BME280;27638;42.184;24.848;2023-11-21T07:03:36;99739.28;;;9.90;70.01
41947;BME280;27638;42.184;24.848;2023-11-21T07:06:03;99734.88;;;9.99;70.27
41947;BME280;27638;42.184;24.848;2023-11-21T07:08:28;99736.56;;;10.08;70.27
41947;BME280;27638;42.184;24.848;2023-11-21T07:10:54;99740.22;;;10.15;69.55
41947;BME280;27638;42.184;24.848;2023-11-21T07:13:19;99733.50;;;10.20;69.80
41947;BME280;27638;42.184;24.848;2023-11-21T07:15:45;99736.19;;;10.37;69.79
41947;BME280;27638;42.184;24.848;2023-11-21T07:18:10;99737.69;;;10.39;69.80
41947;BME280;27638;42.184;24.848;2023-11-21T07:20:36;99736.56;;;10.42;70.08
41947;BME280;27638;42.184;24.848;2023-11-21T07:23:02;99737.41;;;10.42;69.67
41947;BME280;27638;42.184;24.848;2023-11-21T07:25:29;99739.09;;;10.51;70.43
41947;BME280;27638;42.184;24.848;2023-11-21T07:27:54;99733.47;;;10.63;69.14
41947;BME280;27638;42.184;24.848;2023-11-21T07:30:20;99742.78;;;10.75;68.70
41947;BME280;27638;42.184;24.848;2023-11-21T07:32:47;99732.34;;;10.90;68.19
41947;BME280;27638;42.184;24.848;2023-11-21T07:35:13;99727.06;;;11.06;67.60
41947;BME280;27638;42.184;24.848;2023-11-21T07:37:39;99724.75;;;11.03;67.78
41947;BME280;27638;42.184;24.848;2023-11-21T07:40:05;99734.19;;;11.13;68.01
41947;BME280;27638;42.184;24.848;2023-11-21T07:42:31;99736.00;;;11.21;67.14
41947;BME280;27638;42.184;24.848;2023-11-21T07:44:56;99731.53;;;11.30;67.11
41947;BME280;27638;42.184;24.848;2023-11-21T07:47:21;99742.47;;;11.43;65.92
41947;BME280;27638;42.184;24.848;2023-11-21T07:49:47;99737.50;;;11.48;65.84
41947;BME280;27638;42.184;24.848;2023-11-21T07:52:13;99743.13;;;11.37;66.48
41947;BME280;27638;42.184;24.848;2023-11-21T07:54:41;99743.78;;;11.63;66.39
41947;BME280;27638;42.184;24.848;2023-11-21T07:57:07;99750.91;;;11.79;64.42
41947;BME280;27638;42.184;24.848;2023-11-21T07:59:32;99748.72;;;11.74;66.11
41947;BME280;27638;42.184;24.848;2023-11-21T08:01:58;99750.06;;;11.87;65.66
41947;BME280;27638;42.184;24.848;2023-11-21T08:04:23;99752.19;;;11.91;65.26
41947;BME280;27638;42.184;24.848;2023-11-21T08:06:49;99746.88;;;11.99;65.47
41947;BME280;27638;42.184;24.848;2023-11-21T08:09:14;99749.66;;;12.06;64.66
41947;BME280;27638;42.184;24.848;2023-11-21T08:11:42;99738.19;;;12.13;63.21
41947;BME280;27638;42.184;24.848;2023-11-21T08:14:08;99732.56;;;12.08;62.88
41947;BME280;27638;42.184;24.848;2023-11-21T08:16:33;99736.97;;;12.24;63.10
41947;BME280;27638;42.184;24.848;2023-11-21T08:18:59;99728.81;;;12.34;62.49
41947;BME280;27638;42.184;24.848;2023-11-21T08:21:24;99740.72;;;12.38;62.17
41947;BME280;27638;42.184;24.848;2023-11-21T08:23:50;99736.19;;;12.46;61.05
41947;BME280;27638;42.184;24.848;2023-11-21T08:26:20;99745.22;;;12.37;62.09
41947;BME280;27638;42.184;24.848;2023-11-21T08:28:45;99737.94;;;12.31;62.67
41947;BME280;27638;42.184;24.848;2023-11-21T08:31:12;99728.06;;;12.48;61.87
41947;BME280;27638;42.184;24.848;2023-11-21T08:33:38;99731.53;;;12.57;60.23
41947;BME280;27638;42.184;24.848;2023-11-21T08:36:07;99715.28;;;12.52;61.62
41947;BME280;27638;42.184;24.848;2023-11-21T08:38:33;99727.47;;;12.69;61.48
41947;BME280;27638;42.184;24.848;2023-11-21T08:41:04;99719.56;;;12.61;62.77
41947;BME280;27638;42.184;24.848;2023-11-21T08:43:33;99714.88;;;12.63;61.36
41947;BME280;27638;42.184;24.848;2023-11-21T08:45:59;99717.50;;;12.71;62.51
41947;BME280;27638;42.184;24.848;2023-11-21T08:48:24;99703.50;;;12.77;62.52
41947;BME280;27638;42.184;24.848;2023-11-21T08:50:50;99704.38;;;12.69;61.52
41947;BME280;27638;42.184;24.848;2023-11-21T08:53:16;99706.44;;;12.59;62.28
41947;BME280;27638;42.184;24.848;2023-11-21T08:55:42;99699.94;;;12.62;62.45
41947;BME280;27638;42.184;24.848;2023-11-21T08:58:09;99702.69;;;12.76;61.72
41947;BME280;27638;42.184;24.848;2023-11-21T09:00:34;99695.47;;;12.85;61.08
41947;BME280;27638;42.184;24.848;2023-11-21T09:03:01;99695.22;;;12.95;60.09
41947;BME280;27638;42.184;24.848;2023-11-21T09:05:28;99691.56;;;12.96;59.17
41947;BME280;27638;42.184;24.848;2023-11-21T09:07:54;99681.97;;;13.09;58.03
41947;BME280;27638;42.184;24.848;2023-11-21T09:10:19;99679.44;;;13.16;58.71
41947;BME280;27638;42.184;24.848;2023-11-21T09:12:46;99669.66;;;13.17;57.81
41947;BME280;27638;42.184;24.848;2023-11-21T09:15:11;99670.63;;;13.16;58.24
41947;BME280;27638;42.184;24.848;2023-11-21T09:17:36;99663.97;;;13.20;57.83
41947;BME280;27638;42.184;24.848;2023-11-21T09:20:02;99654.00;;;12.99;58.79
41947;BME280;27638;42.184;24.848;2023-11-21T09:22:30;99663.00;;;13.13;58.38
41947;BME280;27638;42.184;24.848;2023-11-21T09:24:57;99657.03;;;13.10;58.63
41947;BME280;27638;42.184;24.848;2023-11-21T09:27:23;99649.72;;;13.13;58.75
41947;BME280;27638;42.184;24.848;2023-11-21T09:29:49;99644.59;;;13.11;58.12
41947;BME280;27638;42.184;24.848;2023-11-21T09:32:14;99643.81;;;12.88;59.48
41947;BME280;27638;42.184;24.848;2023-11-21T09:34:43;99647.13;;;13.04;58.20
41947;BME280;27638;42.184;24.848;2023-11-21T09:37:09;99638.44;;;13.10;58.21
41947;BME280;27638;42.184;24.848;2023-11-21T09:39:34;99633.25;;;13.17;58.18
41947;BME280;27638;42.184;24.848;2023-11-21T09:42:15;99634.81;;;13.26;59.00
41947;BME280;27638;42.184;24.848;2023-11-21T09:44:46;99629.88;;;13.23;57.57
41947;BME280;27638;42.184;24.848;2023-11-21T09:47:15;99624.66;;;13.30;58.40
41947;BME280;27638;42.184;24.848;2023-11-21T09:49:45;99617.41;;;13.38;57.11
41947;BME280;27638;42.184;24.848;2023-11-21T09:52:17;99619.16;;;13.46;56.32
41947;BME280;27638;42.184;24.848;2023-11-21T09:54:43;99623.56;;;13.39;55.87
41947;BME280;27638;42.184;24.848;2023-11-21T09:57:09;99625.03;;;13.41;56.22
41947;BME280;27638;42.184;24.848;2023-11-21T09:59:36;99620.81;;;13.47;56.08
41947;BME280;27638;42.184;24.848;2023-11-21T10:02:03;99607.88;;;13.44;56.52
41947;BME280;27638;42.184;24.848;2023-11-21T10:04:29;99603.75;;;13.41;56.28
41947;BME280;27638;42.184;24.848;2023-11-21T10:06:54;99601.34;;;13.47;56.13
41947;BME280;27638;42.184;24.848;2023-11-21T10:09:21;99592.38;;;13.48;55.59
41947;BME280;27638;42.184;24.848;2023-11-21T10:11:47;99583.19;;;13.50;55.79
41947;BME280;27638;42.184;24.848;2023-11-21T10:14:16;99575.59;;;13.47;56.14
41947;BME280;27638;42.184;24.848;2023-11-21T10:16:44;99576.22;;;13.34;56.96
41947;BME280;27638;42.184;24.848;2023-11-21T10:19:12;99572.00;;;13.40;57.04
41947;BME280;27638;42.184;24.848;2023-11-21T10:21:39;99560.56;;;13.54;55.30
41947;BME280;27638;42.184;24.848;2023-11-21T10:24:05;99545.97;;;13.50;55.43
41947;BME280;27638;42.184;24.848;2023-11-21T10:26:32;99552.09;;;13.51;56.14
41947;BME280;27638;42.184;24.848;2023-11-21T10:29:00;99558.63;;;13.48;54.97
41947;BME280;27638;42.184;24.848;2023-11-21T10:31:30;99551.56;;;13.55;54.38
41947;BME280;27638;42.184;24.848;2023-11-21T10:34:16;99550.84;;;13.61;51.55
41947;BME280;27638;42.184;24.848;2023-11-21T10:36:42;99549.81;;;13.62;52.70
41947;BME280;27638;42.184;24.848;2023-11-21T10:39:08;99543.84;;;13.60;52.28
41947;BME280;27638;42.184;24.848;2023-11-21T10:41:35;99540.13;;;13.55;53.59
41947;BME280;27638;42.184;24.848;2023-11-21T10:44:01;99542.28;;;13.66;53.86
41947;BME280;27638;42.184;24.848;2023-11-21T10:46:29;99535.59;;;13.70;52.86
41947;BME280;27638;42.184;24.848;2023-11-21T10:48:55;99533.44;;;13.80;53.03
41947;BME280;27638;42.184;24.848;2023-11-21T10:51:21;99525.91;;;13.84;54.48
41947;BME280;27638;42.184;24.848;2023-11-21T10:53:47;99523.44;;;13.82;55.26
41947;BME280;27638;42.184;24.848;2023-11-21T10:56:18;99530.03;;;13.86;54.24
41947;BME280;27638;42.184;24.848;2023-11-21T10:58:45;99519.66;;;13.91;52.97
41947;BME280;27638;42.184;24.848;2023-11-21T11:01:11;99523.50;;;13.89;53.38
41947;BME280;27638;42.184;24.848;2023-11-21T11:03:39;99519.66;;;13.91;53.78
41947;BME280;27638;42.184;24.848;2023-11-21T11:06:06;99522.13;;;13.93;53.35
41947;BME280;27638;42.184;24.848;2023-11-21T11:08:40;99520.09;;;13.95;53.28
41947;BME280;27638;42.184;24.848;2023-11-21T11:11:06;99512.81;;;14.03;53.50
41947;BME280;27638;42.184;24.848;2023-11-21T11:13:32;99505.47;;;14.05;53.08
41947;BME280;27638;42.184;24.848;2023-11-21T11:15:59;99505.50;;;14.12;53.18
41947;BME280;27638;42.184;24.848;2023-11-21T11:18:29;99497.91;;;14.09;53.85
41947;BME280;27638;42.184;24.848;2023-11-21T11:21:03;99486.88;;;14.12;54.65
41947;BME280;27638;42.184;24.848;2023-11-21T11:23:54;99487.75;;;14.19;54.21
41947;BME280;27638;42.184;24.848;2023-11-21T11:26:38;99474.13;;;14.07;53.83
41947;BME280;27638;42.184;24.848;2023-11-21T11:29:30;99466.91;;;14.01;54.20
41947;BME280;27638;42.184;24.848;2023-11-21T11:32:40;99458.03;;;13.94;54.69
41947;BME280;27638;42.184;24.848;2023-11-21T11:37:47;99448.72;;;14.05;53.88
41947;BME280;27638;42.184;24.848;2023-11-21T11:40:12;99432.22;;;14.16;53.84
41947;BME280;27638;42.184;24.848;2023-11-21T11:42:38;99417.91;;;14.17;53.49
41947;BME280;27638;42.184;24.848;2023-11-21T11:45:17;99414.25;;;13.97;55.14
41947;BME280;27638;42.184;24.848;2023-11-21T11:47:47;99393.44;;;13.58;56.65
41947;BME280;27638;42.184;24.848;2023-11-21T11:50:13;99393.19;;;13.38;57.82
41947;BME280;27638;42.184;24.848;2023-11-21T11:52:45;99383.31;;;13.32;58.00
41947;BME280;27638;42.184;24.848;2023-11-21T11:55:15;99397.25;;;13.34;58.83
41947;BME280;27638;42.184;24.848;2023-11-21T11:57:45;99408.06;;;13.32;57.42
41947;BME280;27638;42.184;24.848;2023-11-21T12:00:22;99405.41;;;13.32;57.68
41947;BME280;27638;42.184;24.848;2023-11-21T12:02:58;99396.22;;;13.35;57.41
41947;BME280;27638;42.184;24.848;2023-11-21T12:05:27;99383.88;;;13.27;57.85
41947;BME280;27638;42.184;24.848;2023-11-21T12:07:54;99378.66;;;13.19;57.32
41947;BME280;27638;42.184;24.848;2023-11-21T12:10:22;99378.84;;;13.18;58.16
41947;BME280;27638;42.184;24.848;2023-11-21T12:12:51;99385.53;;;13.14;57.91
41947;BME280;27638;42.184;24.848;2023-11-21T12:15:20;99392.97;;;13.03;58.56
41947;BME280;27638;42.184;24.848;2023-11-21T12:17:47;99397.84;;;13.00;58.80
41947;BME280;27638;42.184;24.848;2023-11-21T12:20:13;99394.81;;;13.03;58.76
41947;BME280;27638;42.184;24.848;2023-11-21T12:22:49;99395.47;;;12.90;59.69
41947;BME280;27638;42.184;24.848;2023-11-21T12:25:28;99391.88;;;12.98;59.23
41947;BME280;27638;42.184;24.848;2023-11-21T12:28:00;99384.00;;;13.04;58.41
41947;BME280;27638;42.184;24.848;2023-11-21T12:30:28;99380.50;;;13.04;58.15
41947;BME280;27638;42.184;24.848;2023-11-21T12:32:56;99385.00;;;13.03;59.20
41947;BME280;27638;42.184;24.848;2023-11-21T12:35:24;99373.91;;;13.00;59.93
41947;BME280;27638;42.184;24.848;2023-11-21T12:37:51;99386.66;;;13.19;59.48
41947;BME280;27638;42.184;24.848;2023-11-21T12:40:17;99400.09;;;13.32;58.17
41947;BME280;27638;42.184;24.848;2023-11-21T12:42:45;99401.69;;;13.48;57.47
41947;BME280;27638;42.184;24.848;2023-11-21T12:47:49;99383.34;;;13.53;57.72
41947;BME280;27638;42.184;24.848;2023-11-21T12:50:22;99375.38;;;13.53;59.30
41947;BME280;27638;42.184;24.848;2023-11-21T12:52:57;99381.00;;;13.65;57.91
41947;BME280;27638;42.184;24.848;2023-11-21T12:55:24;99377.91;;;13.61;58.39
41947;BME280;27638;42.184;24.848;2023-11-21T12:57:51;99368.56;;;13.51;58.55
41947;BME280;27638;42.184;24.848;2023-11-21T13:00:18;99351.59;;;13.30;59.93